sensor_id;sensor_type;location;lat;lon;timestamp;temperature;humidity
48007;DHT22;33771;48.180;11.400;2023-04-24T00:00:03;10.10;99.90
48007;DHT22;33771;48.180;11.400;2023-04-24T00:02:34;10.00;99.90
48007;DHT22;33771;48.180;11.400;2023-04-24T00:04:59;10.00;99.90
48007;DHT22;33771;48.180;11.400;2023-04-24T00:07:28;10.00;99.90
48007;DHT22;33771;48.180;11.400;2023-04-24T00:09:54;10.00;99.90
48007;DHT22;33771;48.180;11.400;2023-04-24T00:12:20;10.00;99.90
48007;DHT22;33771;48.180;11.400;2023-04-24T00:14:45;9.90;99.90
48007;DHT22;33771;48.180;11.400;2023-04-24T00:17:11;9.90;99.90
48007;DHT22;33771;48.180;11.400;2023-04-24T00:19:37;9.90;99.90
48007;DHT22;33771;48.180;11.400;2023-04-24T00:22:02;9.90;99.90
48007;DHT22;33771;48.180;11.400;2023-04-24T00:24:28;9.80;99.90
48007;DHT22;33771;48.180;11.400;2023-04-24T00:26:54;9.80;99.90
48007;DHT22;33771;48.180;11.400;2023-04-24T00:29:20;9.80;99.90
48007;DHT22;33771;48.180;11.400;2023-04-24T00:31:45;9.80;99.90
48007;DHT22;33771;48.180;11.400;2023-04-24T00:34:11;9.80;99.90
48007;DHT22;33771;48.180;11.400;2023-04-24T00:36:37;9.70;99.90
48007;DHT22;33771;48.180;11.400;2023-04-24T00:39:03;9.70;99.90
48007;DHT22;33771;48.180;11.400;2023-04-24T00:41:29;9.70;99.90
48007;DHT22;33771;48.180;11.400;2023-04-24T00:43:55;9.70;99.90
48007;DHT22;33771;48.180;11.400;2023-04-24T00:46:21;9.70;99.90
48007;DHT22;33771;48.180;11.400;2023-04-24T00:48:46;9.70;99.90
48007;DHT22;33771;48.180;11.400;2023-04-24T00:51:12;9.60;99.90
48007;DHT22;33771;48.180;11.400;2023-04-24T00:53:38;9.60;99.90
48007;DHT22;33771;48.180;11.400;2023-04-24T00:56:04;9.60;99.90
48007;DHT22;33771;48.180;11.400;2023-04-24T00:58:30;9.50;99.90
48007;DHT22;33771;48.180;11.400;2023-04-24T01:00:57;9.50;99.90
48007;DHT22;33771;48.180;11.400;2023-04-24T01:03:30;9.50;99.90
48007;DHT22;33771;48.180;11.400;2023-04-24T01:05:57;9.50;99.90
48007;DHT22;33771;48.180;11.400;2023-04-24T01:08:24;9.50;99.90
48007;DHT22;33771;48.180;11.400;2023-04-24T01:10:52;9.50;99.90
48007;DHT22;33771;48.180;11.400;2023-04-24T01:13:18;9.50;99.90
48007;DHT22;33771;48.180;11.400;2023-04-24T01:15:45;9.50;99.90
48007;DHT22;33771;48.180;11.400;2023-04-24T01:18:11;9.40;99.90
48007;DHT22;33771;48.180;11.400;2023-04-24T01:20:39;9.50;99.90
48007;DHT22;33771;48.180;11.400;2023-04-24T01:23:06;9.40;99.90
48007;DHT22;33771;48.180;11.400;2023-04-24T01:25:32;9.40;99.90
48007;DHT22;33771;48.180;11.400;2023-04-24T01:27:58;9.40;99.90
48007;DHT22;33771;48.180;11.400;2023-04-24T01:30:23;9.40;99.90
48007;DHT22;33771;48.180;11.400;2023-04-24T01:32:49;9.40;99.90
48007;DHT22;33771;48.180;11.400;2023-04-24T01:35:15;9.40;99.90
48007;DHT22;33771;48.180;11.400;2023-04-24T01:37:41;9.40;99.90
48007;DHT22;33771;48.180;11.400;2023-04-24T01:40:07;9.40;99.90
48007;DHT22;33771;48.180;11.400;2023-04-24T01:42:33;9.30;99.90
48007;DHT22;33771;48.180;11.400;2023-04-24T01:45:01;9.30;99.90
48007;DHT22;33771;48.180;11.400;2023-04-24T01:47:28;9.20;99.90
48007;DHT22;33771;48.180;11.400;2023-04-24T01:49:55;9.20;99.90
48007;DHT22;33771;48.180;11.400;2023-04-24T01:52:20;9.20;99.90
48007;DHT22;33771;48.180;11.400;2023-04-24T01:54:46;9.20;99.90
48007;DHT22;33771;48.180;11.400;2023-04-24T01:57:11;9.20;99.90
48007;DHT22;33771;48.180;11.400;2023-04-24T01:59:37;9.20;99.90
48007;DHT22;33771;48.180;11.400;2023-04-24T02:02:03;9.20;99.90
48007;DHT22;33771;48.180;11.400;2023-04-24T02:04:29;9.20;99.90
48007;DHT22;33771;48.180;11.400;2023-04-24T02:06:54;9.20;99.90
48007;DHT22;33771;48.180;11.400;2023-04-24T02:09:20;9.20;99.90
48007;DHT22;33771;48.180;11.400;2023-04-24T02:11:46;9.10;99.90
48007;DHT22;33771;48.180;11.400;2023-04-24T02:14:11;9.10;99.90
48007;DHT22;33771;48.180;11.400;2023-04-24T02:16:37;9.10;99.90
48007;DHT22;33771;48.180;11.400;2023-04-24T02:19:03;9.10;99.90
48007;DHT22;33771;48.180;11.400;2023-04-24T02:21:29;9.20;99.90
48007;DHT22;33771;48.180;11.400;2023-04-24T02:23:56;9.20;99.90
48007;DHT22;33771;48.180;11.400;2023-04-24T02:26:22;9.20;99.90
48007;DHT22;33771;48.180;11.400;2023-04-24T02:28:47;9.10;99.90
48007;DHT22;33771;48.180;11.400;2023-04-24T02:31:13;9.20;99.90
48007;DHT22;33771;48.180;11.400;2023-04-24T02:33:38;9.10;99.90
48007;DHT22;33771;48.180;11.400;2023-04-24T02:36:04;9.10;99.90
48007;DHT22;33771;48.180;11.400;2023-04-24T02:38:29;9.10;99.90
48007;DHT22;33771;48.180;11.400;2023-04-24T02:40:55;9.10;99.90
48007;DHT22;33771;48.180;11.400;2023-04-24T02:43:21;9.10;99.90
48007;DHT22;33771;48.180;11.400;2023-04-24T02:45:46;9.10;99.90
48007;DHT22;33771;48.180;11.400;2023-04-24T02:48:12;9.10;99.90
48007;DHT22;33771;48.180;11.400;2023-04-24T02:50:37;9.10;99.90
48007;DHT22;33771;48.180;11.400;2023-04-24T02:53:03;9.10;99.90
48007;DHT22;33771;48.180;11.400;2023-04-24T02:55:29;9.10;99.90
48007;DHT22;33771;48.180;11.400;2023-04-24T02:57:55;9.10;99.90
48007;DHT22;33771;48.180;11.400;2023-04-24T03:00:21;9.10;99.90
48007;DHT22;33771;48.180;11.400;2023-04-24T03:02:46;9.10;99.90
48007;DHT22;33771;48.180;11.400;2023-04-24T03:05:12;9.10;99.90
48007;DHT22;33771;48.180;11.400;2023-04-24T03:07:38;9.10;99.90
48007;DHT22;33771;48.180;11.400;2023-04-24T03:10:04;9.10;99.90
48007;DHT22;33771;48.180;11.400;2023-04-24T03:12:31;9.10;99.90
48007;DHT22;33771;48.180;11.400;2023-04-24T03:14:56;9.00;99.90
48007;DHT22;33771;48.180;11.400;2023-04-24T03:17:22;9.10;99.90
48007;DHT22;33771;48.180;11.400;2023-04-24T03:19:48;9.10;99.90
48007;DHT22;33771;48.180;11.400;2023-04-24T03:22:13;9.10;99.90
48007;DHT22;33771;48.180;11.400;2023-04-24T03:24:39;9.10;99.90
48007;DHT22;33771;48.180;11.400;2023-04-24T03:27:05;9.00;99.90
48007;DHT22;33771;48.180;11.400;2023-04-24T03:29:31;9.00;99.90
48007;DHT22;33771;48.180;11.400;2023-04-24T03:31:56;9.00;99.90
48007;DHT22;33771;48.180;11.400;2023-04-24T03:34:22;9.00;99.90
48007;DHT22;33771;48.180;11.400;2023-04-24T03:36:47;9.00;99.90
48007;DHT22;33771;48.180;11.400;2023-04-24T03:39:13;9.00;99.90
48007;DHT22;33771;48.180;11.400;2023-04-24T03:41:39;9.00;99.90
48007;DHT22;33771;48.180;11.400;2023-04-24T03:44:04;9.00;99.90
48007;DHT22;33771;48.180;11.400;2023-04-24T03:46:30;9.00;99.90
48007;DHT22;33771;48.180;11.400;2023-04-24T03:48:55;9.00;99.90
48007;DHT22;33771;48.180;11.400;2023-04-24T03:51:21;8.90;99.90
48007;DHT22;33771;48.180;11.400;2023-04-24T03:53:47;8.90;99.90
48007;DHT22;33771;48.180;11.400;2023-04-24T03:56:12;8.90;99.90
48007;DHT22;33771;48.180;11.400;2023-04-24T03:58:38;8.90;99.90
48007;DHT22;33771;48.180;11.400;2023-04-24T04:01:03;8.90;99.90
48007;DHT22;33771;48.180;11.400;2023-04-24T04:03:29;8.90;99.90
48007;DHT22;33771;48.180;11.400;2023-04-24T04:05:55;8.90;99.90
48007;DHT22;33771;48.180;11.400;2023-04-24T04:08:20;8.80;99.90
48007;DHT22;33771;48.180;11.400;2023-04-24T04:10:46;8.80;99.90
48007;DHT22;33771;48.180;11.400;2023-04-24T04:13:11;8.80;99.90
48007;DHT22;33771;48.180;11.400;2023-04-24T04:15:37;8.80;99.90
48007;DHT22;33771;48.180;11.400;2023-04-24T04:18:02;8.80;99.90
48007;DHT22;33771;48.180;11.400;2023-04-24T04:20:28;8.80;99.90
48007;DHT22;33771;48.180;11.400;2023-04-24T04:22:54;8.80;99.90
48007;DHT22;33771;48.180;11.400;2023-04-24T04:25:19;8.80;99.90
48007;DHT22;33771;48.180;11.400;2023-04-24T04:27:46;8.80;99.90
48007;DHT22;33771;48.180;11.400;2023-04-24T04:30:13;8.80;99.90
48007;DHT22;33771;48.180;11.400;2023-04-24T04:32:39;8.90;99.90
48007;DHT22;33771;48.180;11.400;2023-04-24T04:35:04;8.90;99.90
48007;DHT22;33771;48.180;11.400;2023-04-24T04:37:31;8.90;99.90
48007;DHT22;33771;48.180;11.400;2023-04-24T04:39:57;8.90;99.90
48007;DHT22;33771;48.180;11.400;2023-04-24T04:42:24;8.90;99.90
48007;DHT22;33771;48.180;11.400;2023-04-24T04:44:50;8.80;99.90
48007;DHT22;33771;48.180;11.400;2023-04-24T04:47:16;8.80;99.90
48007;DHT22;33771;48.180;11.400;2023-04-24T04:49:43;8.80;99.90
48007;DHT22;33771;48.180;11.400;2023-04-24T04:52:09;8.90;99.90
48007;DHT22;33771;48.180;11.400;2023-04-24T04:54:34;8.90;99.90
48007;DHT22;33771;48.180;11.400;2023-04-24T04:57:00;8.80;99.90
48007;DHT22;33771;48.180;11.400;2023-04-24T04:59:26;8.90;99.90
48007;DHT22;33771;48.180;11.400;2023-04-24T05:01:52;8.90;99.90
48007;DHT22;33771;48.180;11.400;2023-04-24T05:04:17;8.80;99.90
48007;DHT22;33771;48.180;11.400;2023-04-24T05:06:43;8.90;99.90
48007;DHT22;33771;48.180;11.400;2023-04-24T05:09:09;8.90;99.90
48007;DHT22;33771;48.180;11.400;2023-04-24T05:11:35;9.00;99.90
48007;DHT22;33771;48.180;11.400;2023-04-24T05:14:00;9.00;99.90
48007;DHT22;33771;48.180;11.400;2023-04-24T05:16:26;9.00;99.90
48007;DHT22;33771;48.180;11.400;2023-04-24T05:18:52;9.10;99.90
48007;DHT22;33771;48.180;11.400;2023-04-24T05:21:17;9.20;99.90
48007;DHT22;33771;48.180;11.400;2023-04-24T05:23:43;9.10;99.90
48007;DHT22;33771;48.180;11.400;2023-04-24T05:26:08;9.20;99.90
48007;DHT22;33771;48.180;11.400;2023-04-24T05:28:34;9.30;99.90
48007;DHT22;33771;48.180;11.400;2023-04-24T05:31:02;9.30;99.90
48007;DHT22;33771;48.180;11.400;2023-04-24T05:33:27;9.40;99.90
48007;DHT22;33771;48.180;11.400;2023-04-24T05:35:53;9.40;99.90
48007;DHT22;33771;48.180;11.400;2023-04-24T05:38:19;9.40;99.90
48007;DHT22;33771;48.180;11.400;2023-04-24T05:40:45;9.40;99.90
48007;DHT22;33771;48.180;11.400;2023-04-24T05:43:11;9.40;99.90
48007;DHT22;33771;48.180;11.400;2023-04-24T05:45:37;9.40;99.90
48007;DHT22;33771;48.180;11.400;2023-04-24T05:48:03;9.40;99.90
48007;DHT22;33771;48.180;11.400;2023-04-24T05:50:29;9.50;99.90
48007;DHT22;33771;48.180;11.400;2023-04-24T05:52:55;9.50;99.90
48007;DHT22;33771;48.180;11.400;2023-04-24T05:55:21;9.60;99.90
48007;DHT22;33771;48.180;11.400;2023-04-24T05:57:47;9.60;99.90
48007;DHT22;33771;48.180;11.400;2023-04-24T06:00:13;9.70;99.90
48007;DHT22;33771;48.180;11.400;2023-04-24T06:02:39;9.80;99.90
48007;DHT22;33771;48.180;11.400;2023-04-24T06:05:04;9.90;99.90
48007;DHT22;33771;48.180;11.400;2023-04-24T06:07:31;9.90;99.90
48007;DHT22;33771;48.180;11.400;2023-04-24T06:09:56;10.00;99.90
48007;DHT22;33771;48.180;11.400;2023-04-24T06:12:22;10.00;99.90
48007;DHT22;33771;48.180;11.400;2023-04-24T06:14:48;10.00;99.90
48007;DHT22;33771;48.180;11.400;2023-04-24T06:17:15;10.00;99.90
48007;DHT22;33771;48.180;11.400;2023-04-24T06:19:41;10.10;99.90
48007;DHT22;33771;48.180;11.400;2023-04-24T06:22:06;10.10;99.90
48007;DHT22;33771;48.180;11.400;2023-04-24T06:24:34;10.20;99.90
48007;DHT22;33771;48.180;11.400;2023-04-24T06:26:59;10.20;99.90
48007;DHT22;33771;48.180;11.400;2023-04-24T06:29:26;10.10;99.90
48007;DHT22;33771;48.180;11.400;2023-04-24T06:31:52;10.20;99.90
48007;DHT22;33771;48.180;11.400;2023-04-24T06:34:18;10.20;99.90
48007;DHT22;33771;48.180;11.400;2023-04-24T06:36:43;10.20;99.90
48007;DHT22;33771;48.180;11.400;2023-04-24T06:39:09;10.20;99.90
48007;DHT22;33771;48.180;11.400;2023-04-24T06:41:35;10.40;99.90
48007;DHT22;33771;48.180;11.400;2023-04-24T06:44:01;10.30;99.90
48007;DHT22;33771;48.180;11.400;2023-04-24T06:46:26;10.30;99.90
48007;DHT22;33771;48.180;11.400;2023-04-24T06:48:53;10.40;99.90
48007;DHT22;33771;48.180;11.400;2023-04-24T06:51:25;10.40;99.90
48007;DHT22;33771;48.180;11.400;2023-04-24T06:53:54;10.50;99.90
48007;DHT22;33771;48.180;11.400;2023-04-24T06:56:21;10.60;99.90
48007;DHT22;33771;48.180;11.400;2023-04-24T06:58:47;10.60;99.90
48007;DHT22;33771;48.180;11.400;2023-04-24T07:01:13;10.70;99.90
48007;DHT22;33771;48.180;11.400;2023-04-24T07:03:39;10.70;99.90
48007;DHT22;33771;48.180;11.400;2023-04-24T07:06:05;10.80;99.90
48007;DHT22;33771;48.180;11.400;2023-04-24T07:08:30;10.90;99.90
48007;DHT22;33771;48.180;11.400;2023-04-24T07:10:56;11.10;99.90
48007;DHT22;33771;48.180;11.400;2023-04-24T07:13:22;11.20;99.90
48007;DHT22;33771;48.180;11.400;2023-04-24T07:15:48;11.20;99.90
48007;DHT22;33771;48.180;11.400;2023-04-24T07:18:19;11.30;99.90
48007;DHT22;33771;48.180;11.400;2023-04-24T07:20:45;11.30;99.90
48007;DHT22;33771;48.180;11.400;2023-04-24T07:23:10;11.20;99.90
48007;DHT22;33771;48.180;11.400;2023-04-24T07:25:36;11.20;99.90
48007;DHT22;33771;48.180;11.400;2023-04-24T07:28:01;11.30;99.90
48007;DHT22;33771;48.180;11.400;2023-04-24T07:30:27;11.30;99.90
48007;DHT22;33771;48.180;11.400;2023-04-24T07:32:54;11.10;99.90
48007;DHT22;33771;48.180;11.400;2023-04-24T07:35:21;11.00;99.90
48007;DHT22;33771;48.180;11.400;2023-04-24T07:37:46;10.90;99.90
48007;DHT22;33771;48.180;11.400;2023-04-24T07:40:13;10.90;99.90
48007;DHT22;33771;48.180;11.400;2023-04-24T07:42:39;10.90;99.90
48007;DHT22;33771;48.180;11.400;2023-04-24T07:45:05;10.90;99.90
48007;DHT22;33771;48.180;11.400;2023-04-24T07:47:31;10.90;99.90
48007;DHT22;33771;48.180;11.400;2023-04-24T07:49:57;10.90;99.90
48007;DHT22;33771;48.180;11.400;2023-04-24T07:52:23;11.00;99.90
48007;DHT22;33771;48.180;11.400;2023-04-24T07:54:49;11.10;99.90
48007;DHT22;33771;48.180;11.400;2023-04-24T07:57:15;11.10;99.90
48007;DHT22;33771;48.180;11.400;2023-04-24T07:59:41;11.10;99.90
48007;DHT22;33771;48.180;11.400;2023-04-24T08:02:07;11.20;99.90
48007;DHT22;33771;48.180;11.400;2023-04-24T08:04:33;11.30;99.90
48007;DHT22;33771;48.180;11.400;2023-04-24T08:06:58;11.30;99.90
48007;DHT22;33771;48.180;11.400;2023-04-24T08:09:24;11.40;99.90
48007;DHT22;33771;48.180;11.400;2023-04-24T08:11:49;11.40;99.90
48007;DHT22;33771;48.180;11.400;2023-04-24T08:14:15;11.50;99.90
48007;DHT22;33771;48.180;11.400;2023-04-24T08:16:41;11.50;99.90
48007;DHT22;33771;48.180;11.400;2023-04-24T08:19:07;11.50;99.90
48007;DHT22;33771;48.180;11.400;2023-04-24T08:21:32;11.50;99.90
48007;DHT22;33771;48.180;11.400;2023-04-24T08:23:58;11.50;99.90
48007;DHT22;33771;48.180;11.400;2023-04-24T08:26:23;11.40;99.90
48007;DHT22;33771;48.180;11.400;2023-04-24T08:28:50;11.20;99.90
48007;DHT22;33771;48.180;11.400;2023-04-24T08:31:15;11.00;99.90
48007;DHT22;33771;48.180;11.400;2023-04-24T08:33:41;10.90;99.90
48007;DHT22;33771;48.180;11.400;2023-04-24T08:36:07;10.80;99.90
48007;DHT22;33771;48.180;11.400;2023-04-24T08:38:33;10.70;99.90
48007;DHT22;33771;48.180;11.400;2023-04-24T08:41:00;10.60;99.90
48007;DHT22;33771;48.180;11.400;2023-04-24T08:43:26;10.60;99.90
48007;DHT22;33771;48.180;11.400;2023-04-24T08:45:55;10.70;99.90
48007;DHT22;33771;48.180;11.400;2023-04-24T08:48:22;10.80;99.90
48007;DHT22;33771;48.180;11.400;2023-04-24T08:50:49;10.90;99.90
48007;DHT22;33771;48.180;11.400;2023-04-24T08:53:16;10.90;99.90
48007;DHT22;33771;48.180;11.400;2023-04-24T08:55:43;11.00;99.90
48007;DHT22;33771;48.180;11.400;2023-04-24T08:58:11;11.10;99.90
48007;DHT22;33771;48.180;11.400;2023-04-24T09:00:39;11.10;99.90
48007;DHT22;33771;48.180;11.400;2023-04-24T09:03:05;11.30;99.90
48007;DHT22;33771;48.180;11.400;2023-04-24T09:05:32;11.30;99.90
48007;DHT22;33771;48.180;11.400;2023-04-24T09:07:59;11.30;99.90
48007;DHT22;33771;48.180;11.400;2023-04-24T09:10:27;11.30;99.90
48007;DHT22;33771;48.180;11.400;2023-04-24T09:12:56;11.40;99.90
48007;DHT22;33771;48.180;11.400;2023-04-24T09:15:24;11.40;99.90
48007;DHT22;33771;48.180;11.400;2023-04-24T09:17:50;11.60;99.90
48007;DHT22;33771;48.180;11.400;2023-04-24T09:20:15;11.70;99.90
48007;DHT22;33771;48.180;11.400;2023-04-24T09:22:42;11.70;99.90
48007;DHT22;33771;48.180;11.400;2023-04-24T09:25:09;11.90;99.90
48007;DHT22;33771;48.180;11.400;2023-04-24T09:27:41;11.90;99.90
48007;DHT22;33771;48.180;11.400;2023-04-24T09:30:08;11.90;99.90
48007;DHT22;33771;48.180;11.400;2023-04-24T09:32:34;11.90;99.90
48007;DHT22;33771;48.180;11.400;2023-04-24T09:35:07;11.90;99.90
48007;DHT22;33771;48.180;11.400;2023-04-24T09:37:43;12.00;99.90
48007;DHT22;33771;48.180;11.400;2023-04-24T09:40:21;12.30;99.90
48007;DHT22;33771;48.180;11.400;2023-04-24T09:42:57;12.50;99.90
48007;DHT22;33771;48.180;11.400;2023-04-24T09:45:42;12.60;99.90
48007;DHT22;33771;48.180;11.400;2023-04-24T09:48:10;12.70;99.90
48007;DHT22;33771;48.180;11.400;2023-04-24T09:50:37;12.70;99.90
48007;DHT22;33771;48.180;11.400;2023-04-24T09:53:04;12.80;99.90
48007;DHT22;33771;48.180;11.400;2023-04-24T09:55:31;12.80;99.90
48007;DHT22;33771;48.180;11.400;2023-04-24T09:57:58;12.90;99.90
48007;DHT22;33771;48.180;11.400;2023-04-24T10:00:30;12.90;99.90
48007;DHT22;33771;48.180;11.400;2023-04-24T10:03:05;13.10;99.90
48007;DHT22;33771;48.180;11.400;2023-04-24T10:05:33;13.30;99.90
48007;DHT22;33771;48.180;11.400;2023-04-24T10:08:09;13.30;99.90
48007;DHT22;33771;48.180;11.400;2023-04-24T10:10:39;13.30;99.90
48007;DHT22;33771;48.180;11.400;2023-04-24T10:13:04;13.30;99.90
48007;DHT22;33771;48.180;11.400;2023-04-24T10:15:30;13.30;99.90
48007;DHT22;33771;48.180;11.400;2023-04-24T10:17:58;13.20;99.90
48007;DHT22;33771;48.180;11.400;2023-04-24T10:20:27;13.20;99.90
48007;DHT22;33771;48.180;11.400;2023-04-24T10:22:54;13.20;99.90
48007;DHT22;33771;48.180;11.400;2023-04-24T10:25:22;13.40;99.90
48007;DHT22;33771;48.180;11.400;2023-04-24T10:27:49;13.50;99.90
48007;DHT22;33771;48.180;11.400;2023-04-24T10:30:15;13.60;99.90
48007;DHT22;33771;48.180;11.400;2023-04-24T10:32:41;13.50;99.90
48007;DHT22;33771;48.180;11.400;2023-04-24T10:35:07;13.30;99.90
48007;DHT22;33771;48.180;11.400;2023-04-24T10:37:38;13.20;99.90
48007;DHT22;33771;48.180;11.400;2023-04-24T10:40:06;13.10;99.90
48007;DHT22;33771;48.180;11.400;2023-04-24T10:42:33;12.40;99.90
48007;DHT22;33771;48.180;11.400;2023-04-24T10:44:59;11.90;99.90
48007;DHT22;33771;48.180;11.400;2023-04-24T10:47:27;11.50;99.90
48007;DHT22;33771;48.180;11.400;2023-04-24T10:49:53;11.00;99.90
48007;DHT22;33771;48.180;11.400;2023-04-24T10:52:19;10.70;99.90
48007;DHT22;33771;48.180;11.400;2023-04-24T10:54:46;10.50;99.90
48007;DHT22;33771;48.180;11.400;2023-04-24T11:00:20;10.50;99.90
48007;DHT22;33771;48.180;11.400;2023-04-24T11:02:47;10.60;99.90
48007;DHT22;33771;48.180;11.400;2023-04-24T11:05:19;10.70;99.90
48007;DHT22;33771;48.180;11.400;2023-04-24T11:08:13;10.90;99.90
48007;DHT22;33771;48.180;11.400;2023-04-24T11:13:29;11.80;99.90
48007;DHT22;33771;48.180;11.400;2023-04-24T11:16:30;12.30;99.90
48007;DHT22;33771;48.180;11.400;2023-04-24T11:26:48;12.40;99.90
48007;DHT22;33771;48.180;11.400;2023-04-24T11:29:13;12.30;99.90
48007;DHT22;33771;48.180;11.400;2023-04-24T11:31:40;12.20;99.90
48007;DHT22;33771;48.180;11.400;2023-04-24T11:34:09;12.30;99.90
48007;DHT22;33771;48.180;11.400;2023-04-24T11:36:35;12.50;99.90
48007;DHT22;33771;48.180;11.400;2023-04-24T11:39:01;12.60;99.90
48007;DHT22;33771;48.180;11.400;2023-04-24T11:41:27;12.80;99.90
48007;DHT22;33771;48.180;11.400;2023-04-24T11:43:54;13.20;99.90
48007;DHT22;33771;48.180;11.400;2023-04-24T11:46:26;13.70;99.90
48007;DHT22;33771;48.180;11.400;2023-04-24T11:48:51;13.90;99.90
48007;DHT22;33771;48.180;11.400;2023-04-24T11:51:17;14.10;99.90
48007;DHT22;33771;48.180;11.400;2023-04-24T11:53:42;14.20;99.90
48007;DHT22;33771;48.180;11.400;2023-04-24T11:56:11;14.20;99.90
48007;DHT22;33771;48.180;11.400;2023-04-24T11:58:38;14.30;99.90
48007;DHT22;33771;48.180;11.400;2023-04-24T12:01:04;14.20;99.90
48007;DHT22;33771;48.180;11.400;2023-04-24T12:03:30;14.20;99.90
48007;DHT22;33771;48.180;11.400;2023-04-24T12:06:06;14.20;99.90
48007;DHT22;33771;48.180;11.400;2023-04-24T12:08:33;14.40;99.90
48007;DHT22;33771;48.180;11.400;2023-04-24T12:11:04;14.60;99.90
48007;DHT22;33771;48.180;11.400;2023-04-24T12:13:30;14.80;99.90
48007;DHT22;33771;48.180;11.400;2023-04-24T12:15:59;15.20;99.90
48007;DHT22;33771;48.180;11.400;2023-04-24T12:18:25;15.30;99.90
48007;DHT22;33771;48.180;11.400;2023-04-24T12:20:51;15.50;99.90
48007;DHT22;33771;48.180;11.400;2023-04-24T12:23:16;15.80;99.90
48007;DHT22;33771;48.180;11.400;2023-04-24T12:25:43;16.10;99.90
48007;DHT22;33771;48.180;11.400;2023-04-24T12:28:11;16.40;99.90
48007;DHT22;33771;48.180;11.400;2023-04-24T12:30:42;16.70;99.90
48007;DHT22;33771;48.180;11.400;2023-04-24T12:33:09;16.60;99.90
48007;DHT22;33771;48.180;11.400;2023-04-24T12:35:35;16.70;99.90
48007;DHT22;33771;48.180;11.400;2023-04-24T12:38:13;17.10;99.90
48007;DHT22;33771;48.180;11.400;2023-04-24T12:40:41;17.40;99.90
48007;DHT22;33771;48.180;11.400;2023-04-24T12:43:20;17.70;99.90
48007;DHT22;33771;48.180;11.400;2023-04-24T12:45:48;17.70;99.90
48007;DHT22;33771;48.180;11.400;2023-04-24T12:48:14;17.60;99.90
48007;DHT22;33771;48.180;11.400;2023-04-24T12:50:39;17.50;99.90
48007;DHT22;33771;48.180;11.400;2023-04-24T12:53:08;17.20;99.90
48007;DHT22;33771;48.180;11.400;2023-04-24T12:55:34;16.70;99.90
48007;DHT22;33771;48.180;11.400;2023-04-24T12:58:00;16.10;99.90
48007;DHT22;33771;48.180;11.400;2023-04-24T13:00:25;15.40;99.90
48007;DHT22;33771;48.180;11.400;2023-04-24T13:02:51;14.70;99.90
48007;DHT22;33771;48.180;11.400;2023-04-24T13:05:17;14.20;99.90
48007;DHT22;33771;48.180;11.400;2023-04-24T13:07:42;13.90;99.90
48007;DHT22;33771;48.180;11.400;2023-04-24T13:10:08;14.00;99.90
48007;DHT22;33771;48.180;11.400;2023-04-24T13:12:34;14.50;99.90
48007;DHT22;33771;48.180;11.400;2023-04-24T13:15:00;14.80;99.90
48007;DHT22;33771;48.180;11.400;2023-04-24T13:17:26;14.90;99.90
48007;DHT22;33771;48.180;11.400;2023-04-24T13:19:53;15.00;99.90
48007;DHT22;33771;48.180;11.400;2023-04-24T13:22:19;15.40;99.90
48007;DHT22;33771;48.180;11.400;2023-04-24T13:24:46;15.50;99.90
48007;DHT22;33771;48.180;11.400;2023-04-24T13:27:14;15.60;99.90
48007;DHT22;33771;48.180;11.400;2023-04-24T13:29:40;15.60;99.90
48007;DHT22;33771;48.180;11.400;2023-04-24T13:32:06;15.60;99.90
48007;DHT22;33771;48.180;11.400;2023-04-24T13:34:31;15.40;99.90
48007;DHT22;33771;48.180;11.400;2023-04-24T13:36:58;15.30;99.90
48007;DHT22;33771;48.180;11.400;2023-04-24T13:39:24;15.20;99.90
48007;DHT22;33771;48.180;11.400;2023-04-24T13:41:50;15.00;99.90
48007;DHT22;33771;48.180;11.400;2023-04-24T13:44:17;14.70;99.90
48007;DHT22;33771;48.180;11.400;2023-04-24T13:46:44;14.90;99.90
48007;DHT22;33771;48.180;11.400;2023-04-24T13:49:11;14.90;99.90
48007;DHT22;33771;48.180;11.400;2023-04-24T13:51:37;15.10;99.90
48007;DHT22;33771;48.180;11.400;2023-04-24T13:54:03;15.30;99.90
48007;DHT22;33771;48.180;11.400;2023-04-24T13:56:28;15.40;99.90
48007;DHT22;33771;48.180;11.400;2023-04-24T13:58:54;15.40;99.90
48007;DHT22;33771;48.180;11.400;2023-04-24T14:01:20;15.40;99.90
48007;DHT22;33771;48.180;11.400;2023-04-24T14:03:49;15.30;99.90
48007;DHT22;33771;48.180;11.400;2023-04-24T14:06:15;15.00;99.90
48007;DHT22;33771;48.180;11.400;2023-04-24T14:08:40;14.60;99.90
48007;DHT22;33771;48.180;11.400;2023-04-24T14:11:06;14.50;99.90
48007;DHT22;33771;48.180;11.400;2023-04-24T14:13:32;14.60;99.90
48007;DHT22;33771;48.180;11.400;2023-04-24T14:15:58;14.90;99.90
48007;DHT22;33771;48.180;11.400;2023-04-24T14:18:23;14.90;99.90
48007;DHT22;33771;48.180;11.400;2023-04-24T14:20:49;14.70;99.90
48007;DHT22;33771;48.180;11.400;2023-04-24T14:23:15;14.70;99.90
48007;DHT22;33771;48.180;11.400;2023-04-24T14:25:41;14.60;99.90
48007;DHT22;33771;48.180;11.400;2023-04-24T14:28:06;14.70;99.90
48007;DHT22;33771;48.180;11.400;2023-04-24T14:30:32;14.70;99.90
48007;DHT22;33771;48.180;11.400;2023-04-24T14:32:58;14.70;99.90
48007;DHT22;33771;48.180;11.400;2023-04-24T14:35:23;14.80;99.90
48007;DHT22;33771;48.180;11.400;2023-04-24T14:37:49;14.90;99.90
48007;DHT22;33771;48.180;11.400;2023-04-24T14:40:15;14.80;99.90
48007;DHT22;33771;48.180;11.400;2023-04-24T14:42:40;14.70;99.90
48007;DHT22;33771;48.180;11.400;2023-04-24T14:45:06;14.70;99.90
48007;DHT22;33771;48.180;11.400;2023-04-24T14:47:33;14.60;99.90
48007;DHT22;33771;48.180;11.400;2023-04-24T14:49:58;14.50;99.90
48007;DHT22;33771;48.180;11.400;2023-04-24T14:52:24;14.60;99.90
48007;DHT22;33771;48.180;11.400;2023-04-24T14:54:50;14.70;99.90
48007;DHT22;33771;48.180;11.400;2023-04-24T14:57:15;14.90;99.90
48007;DHT22;33771;48.180;11.400;2023-04-24T14:59:41;15.00;99.90
48007;DHT22;33771;48.180;11.400;2023-04-24T15:02:06;15.00;99.90
48007;DHT22;33771;48.180;11.400;2023-04-24T15:04:32;15.00;99.90
48007;DHT22;33771;48.180;11.400;2023-04-24T15:06:57;15.10;99.90
48007;DHT22;33771;48.180;11.400;2023-04-24T15:09:24;15.00;99.90
48007;DHT22;33771;48.180;11.400;2023-04-24T15:11:50;14.80;99.90
48007;DHT22;33771;48.180;11.400;2023-04-24T15:14:17;14.80;99.90
48007;DHT22;33771;48.180;11.400;2023-04-24T15:16:43;15.00;99.90
48007;DHT22;33771;48.180;11.400;2023-04-24T15:19:08;14.90;99.90
48007;DHT22;33771;48.180;11.400;2023-04-24T15:21:36;14.80;99.90
48007;DHT22;33771;48.180;11.400;2023-04-24T15:24:02;14.80;99.90
48007;DHT22;33771;48.180;11.400;2023-04-24T15:26:27;14.60;99.90
48007;DHT22;33771;48.180;11.400;2023-04-24T15:28:53;14.60;99.90
48007;DHT22;33771;48.180;11.400;2023-04-24T15:31:18;14.40;99.90